Terminal Aerodrome Forecast
Issued by NWS

Home | Current Version | Previous Version | Text Only | Print | Product List | Glossary On
Versions: 1 2 3 4 5 6 7 8 9 10 11 12 13 14 15 16
000
FTUS44 KLZK 190600 CCA
TAFLLQ
TAF COR
KLLQ 190600Z 1906/2006 VRB03KT 5SM BR SCT040
      TEMPO 1908/1911 2SM BR BKN002
     FM191100 00000KT 4SM BR BKN015
     FM191400 07003KT P6SM BKN025
     FM191700 10005KT P6SM SCT040
     FM200000 VRB03KT P6SM SCT250=

USA.gov is the U.S. government's official web portal to all federal, state and local government web resources and services.